Station Historical Data
Daily Summary for September 23, 2017 Units:  English    Metric   Both
« Previous Day
Next Day »
Daily Weekly Monthly Yearly Custom
  High: Low: Average:
Temperature: 87.4 °F 65.9 °F 74.7 °F
Dew Point: 70.4 °F 63.1 °F 65.5 °F
Humidity: 93% 47% 75%
Wind Speed: 9.0mph 1.0mph 3.5mph
Wind Gust: 9.0mph - -
Wind- - ENE
Pressure: 30.07 in 29.99 in -
Precipitation: 0.00 in    
Historical Graphs
 
 
Tabular Data for September 23, 2017
Time Temperature Dew Point Pressure Wind Wind Speed Wind Gust Humidity Rainfall Rate (Hourly) solar Conditions
00:00 70.6 °F 66.2 °F 30.03 in ENE 1.0 mph 1.0 mph 86% 0.00 in WeatherDisplay:10.37 W/m2 FEW
00:05 70.4 °F 66.0 °F 30.03 in ENE 1.0 mph 1.0 mph 86% 0.00 in WeatherDisplay:10.37 W/m2 FEW
00:10 70.3 °F 65.9 °F 30.03 in ENE 1.0 mph 1.0 mph 86% 0.00 in WeatherDisplay:10.37 W/m2 FEW
00:15 70.2 °F 65.8 °F 30.03 in ENE 1.0 mph 1.0 mph 86% 0.00 in WeatherDisplay:10.37 W/m2 FEW
00:20 70.1 °F 65.7 °F 30.03 in ENE 1.0 mph 1.0 mph 86% 0.00 in WeatherDisplay:10.37 W/m2 FEW
00:25 70.0 °F 66.0 °F 30.03 in ENE 1.0 mph 1.0 mph 87% 0.00 in WeatherDisplay:10.37 W/m2 FEW
00:30 69.9 °F 65.9 °F 30.03 in ENE 1.0 mph 1.0 mph 87% 0.00 in WeatherDisplay:10.37 W/m2 FEW
00:40 69.7 °F 65.7 °F 30.03 in ENE 1.0 mph 1.0 mph 87% 0.00 in WeatherDisplay:10.37 W/m2 FEW
00:45 69.6 °F 65.6 °F 30.03 in ENE 1.0 mph 1.0 mph 87% 0.00 in WeatherDisplay:10.37 W/m2 FEW
00:50 69.5 °F 65.5 °F 30.03 in ENE 1.0 mph 1.0 mph 87% 0.00 in WeatherDisplay:10.37 W/m2 FEW
00:55 69.5 °F 65.8 °F 30.03 in ENE 1.0 mph 1.0 mph 88% 0.00 in WeatherDisplay:10.37 W/m2 FEW
01:00 69.5 °F 65.8 °F 30.03 in ENE 1.0 mph 1.0 mph 88% 0.00 in WeatherDisplay:10.37 W/m2 FEW
01:05 69.6 °F 65.9 °F 30.03 in ENE 1.0 mph 1.0 mph 88% 0.00 in WeatherDisplay:10.37 W/m2 FEW
01:10 69.5 °F 65.8 °F 30.02 in ENE 1.0 mph 1.0 mph 88% 0.00 in WeatherDisplay:10.37 W/m2 FEW
01:15 69.4 °F 65.7 °F 30.03 in ENE 1.0 mph 1.0 mph 88% 0.00 in WeatherDisplay:10.37 W/m2 FEW
01:20 69.3 °F 65.6 °F 30.03 in ENE 1.0 mph 1.0 mph 88% 0.00 in WeatherDisplay:10.37 W/m2 FEW
01:25 69.2 °F 65.5 °F 30.02 in ENE 1.0 mph 1.0 mph 88% 0.00 in WeatherDisplay:10.37 W/m2 FEW
01:30 69.1 °F 65.4 °F 30.02 in ENE 1.0 mph 1.0 mph 88% 0.00 in WeatherDisplay:10.37 W/m2 FEW
01:40 69.1 °F 65.7 °F 30.02 in ENE 1.0 mph 1.0 mph 89% 0.00 in WeatherDisplay:10.37 W/m2 FEW
01:45 69.1 °F 65.7 °F 30.02 in ENE 1.0 mph 1.0 mph 89% 0.00 in WeatherDisplay:10.37 W/m2 FEW
01:50 68.9 °F 65.2 °F 30.02 in ENE 1.0 mph 1.0 mph 88% 0.00 in WeatherDisplay:10.37 W/m2 FEW
01:55 68.8 °F 65.4 °F 30.02 in ENE 1.0 mph 1.0 mph 89% 0.00 in WeatherDisplay:10.37 W/m2 FEW
02:00 68.7 °F 65.3 °F 30.02 in ENE 1.0 mph 1.0 mph 89% 0.00 in WeatherDisplay:10.37 W/m2 FEW
02:05 68.6 °F 65.2 °F 30.02 in ENE 1.0 mph 1.0 mph 89% 0.00 in WeatherDisplay:10.37 W/m2 FEW
02:10 68.5 °F 65.2 °F 30.02 in ENE 1.0 mph 1.0 mph 89% 0.00 in WeatherDisplay:10.37 W/m2 FEW
02:15 68.5 °F 65.1 °F 30.02 in ENE 1.0 mph 1.0 mph 89% 0.00 in WeatherDisplay:10.37 W/m2 FEW
02:20 68.5 °F 65.1 °F 30.02 in ENE 1.0 mph 1.0 mph 89% 0.00 in WeatherDisplay:10.37 W/m2 FEW
02:25 68.5 °F 65.4 °F 30.02 in ENE 1.0 mph 1.0 mph 90% 0.00 in WeatherDisplay:10.37 W/m2 FEW
02:30 68.4 °F 65.4 °F 30.03 in ENE 1.0 mph 1.0 mph 90% 0.00 in WeatherDisplay:10.37 W/m2 FEW
02:35 68.3 °F 65.3 °F 30.03 in ENE 1.0 mph 1.0 mph 90% 0.00 in WeatherDisplay:10.37 W/m2 FEW
02:40 68.2 °F 65.2 °F 30.03 in ENE 1.0 mph 1.0 mph 90% 0.00 in WeatherDisplay:10.37 W/m2 FEW
02:50 68.1 °F 65.1 °F 30.02 in ENE 1.0 mph 1.0 mph 90% 0.00 in WeatherDisplay:10.37 W/m2 FEW
02:55 68.0 °F 65.0 °F 30.03 in ENE 1.0 mph 1.0 mph 90% 0.00 in WeatherDisplay:10.37 W/m2 FEW
03:00 68.0 °F 65.0 °F 30.02 in ENE 1.0 mph 1.0 mph 90% 0.00 in WeatherDisplay:10.37 W/m2 FEW
03:05 67.9 °F 64.9 °F 30.02 in ENE 1.0 mph 1.0 mph 90% 0.00 in WeatherDisplay:10.37 W/m2 FEW
03:10 67.8 °F 64.8 °F 30.02 in ENE 1.0 mph 1.0 mph 90% 0.00 in WeatherDisplay:10.37 W/m2 FEW
03:15 67.6 °F 64.6 °F 30.02 in ENE 1.0 mph 1.0 mph 90% 0.00 in WeatherDisplay:10.37 W/m2 FEW
03:20 67.5 °F 64.5 °F 30.02 in ENE 1.0 mph 1.0 mph 90% 0.00 in WeatherDisplay:10.37 W/m2 FEW
03:25 67.5 °F 64.5 °F 30.02 in ENE 1.0 mph 1.0 mph 90% 0.00 in WeatherDisplay:10.37 W/m2 FEW
03:30 67.5 °F 64.8 °F 30.02 in ENE 1.0 mph 1.0 mph 91% 0.00 in WeatherDisplay:10.37 W/m2 FEW
03:40 67.5 °F 64.8 °F 30.02 in ENE 1.0 mph 1.0 mph 91% 0.00 in WeatherDisplay:10.37 W/m2 FEW
03:45 67.5 °F 64.8 °F 30.02 in ENE 1.0 mph 1.0 mph 91% 0.00 in WeatherDisplay:10.37 W/m2 FEW
03:50 67.4 °F 64.7 °F 30.02 in ENE 1.0 mph 1.0 mph 91% 0.00 in WeatherDisplay:10.37 W/m2 FEW
03:55 67.3 °F 64.6 °F 30.02 in ENE 1.0 mph 1.0 mph 91% 0.00 in WeatherDisplay:10.37 W/m2 FEW
04:05 67.1 °F 64.4 °F 30.02 in ENE 1.0 mph 1.0 mph 91% 0.00 in WeatherDisplay:10.37 W/m2 FEW
04:10 67.1 °F 64.4 °F 30.02 in ENE 1.0 mph 1.0 mph 91% 0.00 in WeatherDisplay:10.37 W/m2 FEW
04:15 67.2 °F 64.5 °F 30.02 in ENE 1.0 mph 1.0 mph 91% 0.00 in WeatherDisplay:10.37 W/m2 FEW
04:20 67.1 °F 64.4 °F 30.01 in ENE 1.0 mph 1.0 mph 91% 0.00 in WeatherDisplay:10.37 W/m2 FEW
04:25 67.0 °F 64.3 °F 30.01 in ENE 1.0 mph 1.0 mph 91% 0.00 in WeatherDisplay:10.37 W/m2 FEW
04:30 66.9 °F 64.2 °F 30.01 in ENE 1.0 mph 1.0 mph 91% 0.00 in WeatherDisplay:10.37 W/m2 FEW
04:35 67.1 °F 64.7 °F 30.01 in ENE 1.0 mph 1.0 mph 92% 0.00 in WeatherDisplay:10.37 W/m2 FEW
04:40 67.1 °F 64.7 °F 30.01 in ENE 1.0 mph 1.0 mph 92% 0.00 in WeatherDisplay:10.37 W/m2 FEW
04:45 67.1 °F 64.7 °F 30.02 in ENE 1.0 mph 1.0 mph 92% 0.00 in WeatherDisplay:10.37 W/m2 FEW
04:50 67.1 °F 64.7 °F 30.02 in ENE 1.0 mph 1.0 mph 92% 0.00 in WeatherDisplay:10.37 W/m2 FEW
04:55 67.0 °F 64.3 °F 30.01 in ENE 1.0 mph 1.0 mph 91% 0.00 in WeatherDisplay:10.37 W/m2 FEW
05:00 66.9 °F 64.2 °F 30.01 in ENE 1.0 mph 1.0 mph 91% 0.00 in WeatherDisplay:10.37 W/m2 FEW
05:05 66.9 °F 64.2 °F 30.01 in ENE 1.0 mph 1.0 mph 91% 0.00 in WeatherDisplay:10.37 W/m2 FEW
05:10 66.8 °F 64.1 °F 30.02 in ENE 1.0 mph 1.0 mph 91% 0.00 in WeatherDisplay:10.37 W/m2 FEW
05:15 66.7 °F 64.0 °F 30.02 in ENE 1.0 mph 1.0 mph 91% 0.00 in WeatherDisplay:10.37 W/m2 FEW
05:20 66.7 °F 64.0 °F 30.02 in ENE 1.0 mph 1.0 mph 91% 0.00 in WeatherDisplay:10.37 W/m2 FEW
05:25 66.6 °F 63.9 °F 30.02 in ENE 1.0 mph 1.0 mph 91% 0.00 in WeatherDisplay:10.37 W/m2 FEW
05:30 66.5 °F 63.8 °F 30.02 in ENE 1.0 mph 1.0 mph 91% 0.00 in WeatherDisplay:10.37 W/m2 FEW
05:35 66.4 °F 63.7 °F 30.02 in ENE 1.0 mph 1.0 mph 91% 0.00 in WeatherDisplay:10.37 W/m2 FEW
05:40 66.4 °F 64.0 °F 30.02 in ENE 1.0 mph 1.0 mph 92% 0.00 in WeatherDisplay:10.37 W/m2 FEW
05:45 66.4 °F 64.0 °F 30.03 in ENE 1.0 mph 1.0 mph 92% 0.00 in WeatherDisplay:10.37 W/m2 FEW
05:50 66.4 °F 64.0 °F 30.03 in ENE 1.0 mph 1.0 mph 92% 0.00 in WeatherDisplay:10.37 W/m2 FEW
05:55 66.3 °F 63.9 °F 30.03 in ENE 1.0 mph 1.0 mph 92% 0.00 in WeatherDisplay:10.37 W/m2 FEW
06:00 66.2 °F 63.8 °F 30.03 in ENE 1.0 mph 1.0 mph 92% 0.00 in WeatherDisplay:10.37 W/m2 FEW
06:05 66.2 °F 63.8 °F 30.03 in ENE 1.0 mph 1.0 mph 92% 0.00 in WeatherDisplay:10.37 W/m2 FEW
06:10 66.2 °F 63.8 °F 30.03 in ENE 1.0 mph 1.0 mph 92% 0.00 in WeatherDisplay:10.37 W/m2 FEW
06:15 66.2 °F 63.8 °F 30.03 in ENE 1.0 mph 1.0 mph 92% 0.00 in WeatherDisplay:10.37 W/m2 FEW
06:20 66.2 °F 63.8 °F 30.03 in ENE 1.0 mph 1.0 mph 92% 0.00 in WeatherDisplay:10.37 W/m2 FEW
06:25 66.1 °F 63.7 °F 30.03 in ENE 1.0 mph 1.0 mph 92% 0.00 in WeatherDisplay:10.37 W/m2 FEW
06:30 66.1 °F 63.7 °F 30.04 in ENE 1.0 mph 1.0 mph 92% 0.00 in WeatherDisplay:10.37 W/m2 FEW
06:35 66.0 °F 63.6 °F 30.04 in ENE 1.0 mph 1.0 mph 92% 0.00 in WeatherDisplay:10.37 W/m2 FEW
06:40 66.0 °F 63.6 °F 30.04 in ENE 1.0 mph 1.0 mph 92% 0.00 in WeatherDisplay:10.37 W/m2 FEW
06:45 66.0 °F 63.6 °F 30.04 in ENE 1.0 mph 1.0 mph 92% 0.00 in WeatherDisplay:10.37 W/m2 FEW
06:50 66.1 °F 63.7 °F 30.04 in ENE 1.0 mph 1.0 mph 92% 0.00 in WeatherDisplay:10.37 W/m2 FEW
06:55 66.0 °F 63.6 °F 30.04 in ENE 1.0 mph 1.0 mph 92% 0.00 in WeatherDisplay:10.37 W/m2 FEW
07:00 66.0 °F 63.6 °F 30.04 in ENE 1.0 mph 1.0 mph 92% 0.00 in WeatherDisplay:10.37 W/m2 FEW
07:05 66.1 °F 63.7 °F 30.05 in ENE 1.0 mph 1.0 mph 92% 0.00 in WeatherDisplay:10.37 W/m2 FEW
07:10 66.1 °F 63.7 °F 30.05 in ENE 1.0 mph 1.0 mph 92% 0.00 in WeatherDisplay:10.37 W/m2 FEW
07:15 66.0 °F 63.6 °F 30.05 in ENE 1.0 mph 1.0 mph 92% 0.00 in WeatherDisplay:10.37 W/m2 FEW
07:20 65.9 °F 63.5 °F 30.04 in ENE 1.0 mph 1.0 mph 92% 0.00 in WeatherDisplay:10.37 W/m2 FEW
07:25 66.0 °F 63.6 °F 30.04 in ENE 1.0 mph 1.0 mph 92% 0.00 in WeatherDisplay:10.37 W/m2 FEW
07:30 66.1 °F 64.0 °F 30.04 in ENE 1.0 mph 1.0 mph 93% 0.00 in WeatherDisplay:10.37 W/m2 FEW
07:40 66.1 °F 63.7 °F 30.05 in ENE 1.0 mph 1.0 mph 92% 0.00 in WeatherDisplay:10.37 W/m2 FEW
07:45 66.0 °F 63.6 °F 30.05 in ENE 1.0 mph 1.0 mph 92% 0.00 in WeatherDisplay:10.37 W/m2 FEW
07:50 66.0 °F 63.6 °F 30.04 in ENE 1.0 mph 1.0 mph 92% 0.00 in WeatherDisplay:10.37 W/m2 FEW
07:55 66.0 °F 63.6 °F 30.04 in ENE 1.0 mph 1.0 mph 92% 0.00 in WeatherDisplay:10.37 W/m2 FEW
08:00 66.2 °F 64.1 °F 30.05 in ENE 1.0 mph 1.0 mph 93% 0.00 in WeatherDisplay:10.37 W/m2 FEW
08:10 66.4 °F 64.3 °F 30.05 in ENE 1.0 mph 1.0 mph 93% 0.00 in WeatherDisplay:10.37 W/m2 FEW
08:15 66.7 °F 64.6 °F 30.05 in ENE 1.0 mph 1.0 mph 93% 0.00 in WeatherDisplay:10.37 W/m2 FEW
08:20 66.8 °F 64.7 °F 30.05 in ENE 1.0 mph 1.0 mph 93% 0.00 in WeatherDisplay:10.37 W/m2 FEW
08:25 67.1 °F 65.0 °F 30.05 in ENE 1.0 mph 1.0 mph 93% 0.00 in WeatherDisplay:10.37 W/m2 FEW
08:30 67.3 °F 65.2 °F 30.06 in ENE 1.0 mph 1.0 mph 93% 0.00 in WeatherDisplay:10.37 W/m2 FEW
08:40 67.6 °F 65.5 °F 30.06 in ENE 1.0 mph 1.0 mph 93% 0.00 in WeatherDisplay:10.37 W/m2 FEW
08:45 67.8 °F 65.7 °F 30.06 in ENE 1.0 mph 1.0 mph 93% 0.00 in WeatherDisplay:10.37 W/m2 FEW
08:55 68.4 °F 66.3 °F 30.06 in ENE 1.0 mph 1.0 mph 93% 0.00 in WeatherDisplay:10.37 W/m2 FEW
09:00 68.7 °F 66.6 °F 30.06 in ENE 1.0 mph 1.0 mph 93% 0.00 in WeatherDisplay:10.37 W/m2 FEW
09:05 69.1 °F 67.0 °F 30.06 in ENE 1.0 mph 1.0 mph 93% 0.00 in WeatherDisplay:10.37 W/m2 FEW
09:10 69.5 °F 67.4 °F 30.06 in ENE 1.0 mph 1.0 mph 93% 0.00 in WeatherDisplay:10.37 W/m2 FEW
09:15 70.0 °F 67.6 °F 30.06 in NE 1.0 mph 1.0 mph 92% 0.00 in WeatherDisplay:10.37 W/m2 CLR
09:20 70.6 °F 67.8 °F 30.06 in NNE 1.0 mph 1.0 mph 91% 0.00 in WeatherDisplay:10.37 W/m2 CLR
09:25 71.3 °F 67.9 °F 30.06 in NNE 1.0 mph 1.0 mph 89% 0.00 in WeatherDisplay:10.37 W/m2 CLR
09:40 72.7 °F 67.9 °F 30.06 in NNE 1.0 mph 1.0 mph 85% 0.00 in WeatherDisplay:10.37 W/m2 CLR
09:45 73.2 °F 68.5 °F 30.06 in NNE 1.0 mph 1.0 mph 85% 0.00 in WeatherDisplay:10.37 W/m2 CLR
09:50 73.8 °F 68.3 °F 30.06 in North 1.0 mph 1.0 mph 83% 0.00 in WeatherDisplay:10.37 W/m2 CLR
09:55 74.4 °F 68.9 °F 30.06 in NNW 1.0 mph 1.0 mph 83% 0.00 in WeatherDisplay:10.37 W/m2 CLR
10:00 75.0 °F 68.8 °F 30.06 in NNW 1.0 mph 1.0 mph 81% 0.00 in WeatherDisplay:10.37 W/m2 CLR
10:05 75.5 °F 68.5 °F 30.06 in NNW 1.0 mph 1.0 mph 79% 0.00 in WeatherDisplay:10.37 W/m2 CLR
10:10 75.8 °F 68.8 °F 30.07 in NW 1.0 mph 1.0 mph 79% 0.00 in WeatherDisplay:10.37 W/m2 CLR
10:15 75.9 °F 68.2 °F 30.07 in East 3.0 mph 3.0 mph 77% 0.00 in WeatherDisplay:10.37 W/m2 FEW
10:20 76.2 °F 68.8 °F 30.07 in East 3.0 mph 3.0 mph 78% 0.00 in WeatherDisplay:10.37 W/m2 FEW
10:25 76.3 °F 68.6 °F 30.07 in East 3.0 mph 3.0 mph 77% 0.00 in WeatherDisplay:10.37 W/m2 FEW
10:35 76.9 °F 69.5 °F 30.07 in East 3.0 mph 3.0 mph 78% 0.00 in WeatherDisplay:10.37 W/m2 FEW
10:40 77.9 °F 70.1 °F 30.07 in East 3.0 mph 3.0 mph 77% 0.00 in WeatherDisplay:10.37 W/m2 FEW
10:45 78.8 °F 69.8 °F 30.07 in East 3.0 mph 3.0 mph 74% 0.00 in WeatherDisplay:10.37 W/m2 FEW
10:50 79.3 °F 69.5 °F 30.07 in East 3.0 mph 3.0 mph 72% 0.00 in WeatherDisplay:10.37 W/m2 FEW
10:55 79.8 °F 69.6 °F 30.07 in East 3.0 mph 3.0 mph 71% 0.00 in WeatherDisplay:10.37 W/m2 FEW
11:00 80.8 °F 69.7 °F 30.07 in East 3.0 mph 3.0 mph 69% 0.00 in WeatherDisplay:10.37 W/m2 FEW
11:05 81.6 °F 70.4 °F 30.07 in East 3.0 mph 3.0 mph 69% 0.00 in WeatherDisplay:10.37 W/m2 FEW
11:10 82.4 °F 69.9 °F 30.06 in East 3.0 mph 3.0 mph 66% 0.00 in WeatherDisplay:10.37 W/m2 FEW
11:15 82.4 °F 69.4 °F 30.06 in East 3.0 mph 3.0 mph 65% 0.00 in WeatherDisplay:10.37 W/m2 FEW
11:20 82.7 °F 69.7 °F 30.06 in ENE 3.0 mph 3.0 mph 65% 0.00 in WeatherDisplay:10.37 W/m2 FEW
11:30 83.7 °F 68.3 °F 30.06 in ENE 3.0 mph 3.0 mph 60% 0.00 in WeatherDisplay:10.37 W/m2 FEW
11:35 83.6 °F 68.7 °F 30.06 in ENE 3.0 mph 3.0 mph 61% 0.00 in WeatherDisplay:10.37 W/m2 FEW
11:40 84.2 °F 70.2 °F 30.06 in ENE 3.0 mph 3.0 mph 63% 0.00 in WeatherDisplay:10.37 W/m2 FEW
11:45 85.0 °F 69.0 °F 30.06 in ENE 3.0 mph 3.0 mph 59% 0.00 in WeatherDisplay:10.37 W/m2 FEW
11:50 85.6 °F 69.6 °F 30.06 in ENE 3.0 mph 3.0 mph 59% 0.00 in WeatherDisplay:10.37 W/m2 FEW
11:55 86.3 °F 69.3 °F 30.06 in ENE 3.0 mph 3.0 mph 57% 0.00 in WeatherDisplay:10.37 W/m2 FEW
12:00 86.8 °F 69.2 °F 30.06 in ENE 3.0 mph 3.0 mph 56% 0.00 in WeatherDisplay:10.37 W/m2 FEW
12:05 86.1 °F 68.5 °F 30.06 in ENE 3.0 mph 3.0 mph 56% 0.00 in WeatherDisplay:10.37 W/m2 FEW
12:10 85.4 °F 67.4 °F 30.06 in ENE 3.0 mph 3.0 mph 55% 0.00 in WeatherDisplay:10.37 W/m2 FEW
12:15 85.4 °F 68.4 °F 30.06 in SE 3.0 mph 3.0 mph 57% 0.00 in WeatherDisplay:10.37 W/m2 FEW
12:20 85.6 °F 66.0 °F 30.06 in SSE 3.0 mph 3.0 mph 52% 0.00 in WeatherDisplay:10.37 W/m2 FEW
12:25 86.1 °F 68.0 °F 30.06 in SSE 3.0 mph 3.0 mph 55% 0.00 in WeatherDisplay:10.37 W/m2 FEW
12:30 86.3 °F 66.6 °F 30.06 in SSE 3.0 mph 3.0 mph 52% 0.00 in WeatherDisplay:10.37 W/m2 FEW
12:40 86.6 °F 65.7 °F 30.06 in SSE 3.0 mph 3.0 mph 50% 0.00 in WeatherDisplay:10.37 W/m2 FEW
12:45 86.2 °F 66.0 °F 30.06 in SSE 3.0 mph 3.0 mph 51% 0.00 in WeatherDisplay:10.37 W/m2 FEW
12:50 85.5 °F 65.3 °F 30.05 in SSE 3.0 mph 3.0 mph 51% 0.00 in WeatherDisplay:10.37 W/m2 FEW
12:55 85.2 °F 65.6 °F 30.05 in SSE 3.0 mph 3.0 mph 52% 0.00 in WeatherDisplay:10.37 W/m2 FEW
13:00 84.6 °F 65.6 °F 30.06 in SSE 3.0 mph 3.0 mph 53% 0.00 in WeatherDisplay:10.37 W/m2 FEW
13:05 84.0 °F 66.1 °F 30.05 in SSE 3.0 mph 3.0 mph 55% 0.00 in WeatherDisplay:10.37 W/m2 FEW
13:10 83.5 °F 66.2 °F 30.05 in SSE 3.0 mph 3.0 mph 56% 0.00 in WeatherDisplay:10.37 W/m2 FEW
13:15 83.4 °F 65.5 °F 30.05 in East 7.0 mph 7.0 mph 55% 0.00 in WeatherDisplay:10.37 W/m2 BKN
13:20 83.2 °F 65.4 °F 30.05 in ENE 7.0 mph 7.0 mph 55% 0.00 in WeatherDisplay:10.37 W/m2 BKN
13:25 83.2 °F 66.9 °F 30.05 in ENE 7.0 mph 7.0 mph 58% 0.00 in WeatherDisplay:10.37 W/m2 BKN
13:30 83.4 °F 67.1 °F 30.05 in ENE 7.0 mph 7.0 mph 58% 0.00 in WeatherDisplay:10.37 W/m2 BKN
13:35 83.6 °F 66.2 °F 30.04 in ENE 7.0 mph 7.0 mph 56% 0.00 in WeatherDisplay:10.37 W/m2 BKN
13:40 83.9 °F 66.0 °F 30.04 in ENE 7.0 mph 7.0 mph 55% 0.00 in WeatherDisplay:10.37 W/m2 BKN
13:45 84.4 °F 67.0 °F 30.04 in ENE 7.0 mph 7.0 mph 56% 0.00 in WeatherDisplay:10.37 W/m2 BKN
13:50 85.3 °F 65.7 °F 30.04 in ENE 7.0 mph 7.0 mph 52% 0.00 in WeatherDisplay:10.37 W/m2 BKN
13:55 85.7 °F 64.9 °F 30.04 in ENE 7.0 mph 7.0 mph 50% 0.00 in WeatherDisplay:10.37 W/m2 BKN
14:00 85.6 °F 66.0 °F 30.04 in ENE 7.0 mph 7.0 mph 52% 0.00 in WeatherDisplay:10.37 W/m2 BKN
14:05 86.1 °F 64.7 °F 30.04 in ENE 7.0 mph 7.0 mph 49% 0.00 in WeatherDisplay:10.37 W/m2 BKN
14:10 86.5 °F 65.1 °F 30.03 in ENE 7.0 mph 7.0 mph 49% 0.00 in WeatherDisplay:10.37 W/m2 BKN
14:15 87.1 °F 66.8 °F 30.03 in ENE 5.0 mph 7.0 mph 51% 0.00 in WeatherDisplay:10.37 W/m2 BKN
14:20 87.4 °F 67.6 °F 30.03 in East 5.0 mph 5.0 mph 52% 0.00 in WeatherDisplay:10.37 W/m2 BKN
14:25 86.7 °F 64.6 °F 30.03 in East 5.0 mph 5.0 mph 48% 0.00 in WeatherDisplay:10.37 W/m2 BKN
14:30 86.5 °F 66.8 °F 30.03 in East 5.0 mph 5.0 mph 52% 0.00 in WeatherDisplay:10.37 W/m2 BKN
14:35 86.9 °F 66.0 °F 30.03 in East 5.0 mph 5.0 mph 50% 0.00 in WeatherDisplay:10.37 W/m2 BKN
14:40 86.7 °F 65.3 °F 30.02 in East 5.0 mph 5.0 mph 49% 0.00 in WeatherDisplay:10.37 W/m2 BKN
14:45 86.7 °F 64.1 °F 30.02 in East 5.0 mph 5.0 mph 47% 0.00 in WeatherDisplay:10.37 W/m2 BKN
14:50 86.9 °F 64.9 °F 30.02 in East 5.0 mph 5.0 mph 48% 0.00 in WeatherDisplay:10.37 W/m2 BKN
14:55 87.0 °F 64.9 °F 30.02 in East 5.0 mph 5.0 mph 48% 0.00 in WeatherDisplay:10.37 W/m2 BKN
15:00 87.0 °F 64.3 °F 30.02 in East 5.0 mph 5.0 mph 47% 0.00 in WeatherDisplay:10.37 W/m2 BKN
15:10 86.2 °F 64.8 °F 30.02 in East 5.0 mph 5.0 mph 49% 0.00 in WeatherDisplay:10.37 W/m2 BKN
15:15 86.0 °F 65.2 °F 30.02 in East 6.0 mph 6.0 mph 50% 0.00 in WeatherDisplay:10.37 W/m2 BKN
15:20 85.7 °F 63.8 °F 30.02 in East 6.0 mph 6.0 mph 48% 0.00 in WeatherDisplay:10.37 W/m2 BKN
15:25 85.5 °F 65.3 °F 30.02 in East 6.0 mph 6.0 mph 51% 0.00 in WeatherDisplay:10.37 W/m2 BKN
15:30 85.5 °F 65.3 °F 30.01 in East 6.0 mph 6.0 mph 51% 0.00 in WeatherDisplay:10.37 W/m2 BKN
15:40 85.0 °F 64.9 °F 30.01 in East 6.0 mph 6.0 mph 51% 0.00 in WeatherDisplay:10.37 W/m2 BKN
15:45 84.8 °F 65.8 °F 30.00 in East 6.0 mph 6.0 mph 53% 0.00 in WeatherDisplay:10.37 W/m2 BKN
15:50 84.7 °F 65.1 °F 30.00 in East 6.0 mph 6.0 mph 52% 0.00 in WeatherDisplay:10.37 W/m2 BKN
15:55 84.8 °F 65.8 °F 30.00 in East 6.0 mph 6.0 mph 53% 0.00 in WeatherDisplay:10.37 W/m2 BKN
16:00 84.6 °F 64.5 °F 30.00 in East 6.0 mph 6.0 mph 51% 0.00 in WeatherDisplay:10.37 W/m2 BKN
16:05 84.5 °F 65.5 °F 30.00 in East 6.0 mph 6.0 mph 53% 0.00 in WeatherDisplay:10.37 W/m2 BKN
16:10 84.5 °F 64.4 °F 30.00 in East 6.0 mph 6.0 mph 51% 0.00 in WeatherDisplay:10.37 W/m2 BKN
16:15 84.5 °F 64.4 °F 30.00 in East 8.0 mph 8.0 mph 51% 0.00 in WeatherDisplay:10.37 W/m2 FEW
16:20 84.3 °F 64.8 °F 30.00 in ENE 8.0 mph 8.0 mph 52% 0.00 in WeatherDisplay:10.37 W/m2 FEW
16:25 84.3 °F 64.8 °F 29.99 in ENE 8.0 mph 8.0 mph 52% 0.00 in WeatherDisplay:10.37 W/m2 FEW
16:30 84.5 °F 64.4 °F 29.99 in ENE 8.0 mph 8.0 mph 51% 0.00 in WeatherDisplay:10.37 W/m2 FEW
16:35 84.7 °F 64.6 °F 29.99 in ENE 8.0 mph 8.0 mph 51% 0.00 in WeatherDisplay:10.37 W/m2 FEW
16:40 84.9 °F 65.3 °F 29.99 in ENE 8.0 mph 8.0 mph 52% 0.00 in WeatherDisplay:10.37 W/m2 FEW
16:45 84.8 °F 64.1 °F 29.99 in ENE 8.0 mph 8.0 mph 50% 0.00 in WeatherDisplay:10.37 W/m2 FEW
16:50 84.9 °F 64.8 °F 29.99 in ENE 8.0 mph 8.0 mph 51% 0.00 in WeatherDisplay:10.37 W/m2 FEW
16:55 84.8 °F 65.2 °F 29.99 in ENE 8.0 mph 8.0 mph 52% 0.00 in WeatherDisplay:10.37 W/m2 FEW
17:00 84.6 °F 63.4 °F 29.99 in ENE 8.0 mph 8.0 mph 49% 0.00 in WeatherDisplay:10.37 W/m2 FEW
17:10 84.3 °F 63.1 °F 29.99 in ENE 8.0 mph 8.0 mph 49% 0.00 in WeatherDisplay:10.37 W/m2 FEW
17:15 84.2 °F 64.7 °F 29.99 in ENE 8.0 mph 8.0 mph 52% 0.00 in WeatherDisplay:10.37 W/m2 FEW
17:20 84.0 °F 64.4 °F 29.99 in ENE 8.0 mph 8.0 mph 52% 0.00 in WeatherDisplay:10.37 W/m2 FEW
17:25 83.7 °F 64.7 °F 29.99 in ENE 8.0 mph 8.0 mph 53% 0.00 in WeatherDisplay:10.37 W/m2 FEW
17:30 83.4 °F 63.4 °F 29.99 in ENE 8.0 mph 8.0 mph 51% 0.00 in WeatherDisplay:10.37 W/m2 FEW
17:35 83.2 °F 64.8 °F 29.99 in ENE 8.0 mph 8.0 mph 54% 0.00 in WeatherDisplay:10.37 W/m2 FEW
17:40 82.8 °F 64.0 °F 29.99 in ENE 8.0 mph 8.0 mph 53% 0.00 in WeatherDisplay:10.37 W/m2 FEW
17:45 82.4 °F 64.6 °F 29.99 in ENE 8.0 mph 8.0 mph 55% 0.00 in WeatherDisplay:10.37 W/m2 FEW
17:50 81.9 °F 64.1 °F 29.99 in ENE 8.0 mph 8.0 mph 55% 0.00 in WeatherDisplay:10.37 W/m2 FEW
17:55 81.5 °F 64.3 °F 29.99 in ENE 8.0 mph 8.0 mph 56% 0.00 in WeatherDisplay:10.37 W/m2 FEW
18:00 81.3 °F 64.1 °F 30.00 in ENE 8.0 mph 8.0 mph 56% 0.00 in WeatherDisplay:10.37 W/m2 FEW
18:10 80.5 °F 64.4 °F 30.00 in ENE 8.0 mph 8.0 mph 58% 0.00 in WeatherDisplay:10.37 W/m2 FEW
18:15 80.0 °F 63.4 °F 30.00 in ENE 8.0 mph 8.0 mph 57% 0.00 in WeatherDisplay:10.37 W/m2 FEW
18:20 80.2 °F 64.6 °F 30.00 in ENE 8.0 mph 8.0 mph 59% 0.00 in WeatherDisplay:10.37 W/m2 FEW
18:25 80.2 °F 65.1 °F 30.00 in ENE 8.0 mph 8.0 mph 60% 0.00 in WeatherDisplay:10.37 W/m2 FEW
18:30 80.1 °F 65.4 °F 30.00 in ENE 8.0 mph 8.0 mph 61% 0.00 in WeatherDisplay:10.37 W/m2 FEW
18:35 79.8 °F 65.6 °F 30.00 in ENE 8.0 mph 8.0 mph 62% 0.00 in WeatherDisplay:10.37 W/m2 FEW
18:40 79.5 °F 66.3 °F 30.00 in ENE 8.0 mph 8.0 mph 64% 0.00 in WeatherDisplay:10.37 W/m2 FEW
18:45 79.3 °F 66.1 °F 30.00 in ENE 8.0 mph 8.0 mph 64% 0.00 in WeatherDisplay:10.37 W/m2 FEW
18:50 79.0 °F 66.2 °F 30.00 in ENE 8.0 mph 8.0 mph 65% 0.00 in WeatherDisplay:10.37 W/m2 FEW
18:55 78.6 °F 65.8 °F 30.00 in ENE 8.0 mph 8.0 mph 65% 0.00 in WeatherDisplay:10.37 W/m2 FEW
19:00 78.3 °F 66.0 °F 30.00 in ENE 8.0 mph 8.0 mph 66% 0.00 in WeatherDisplay:10.37 W/m2 FEW
19:05 78.0 °F 65.7 °F 30.00 in ENE 8.0 mph 8.0 mph 66% 0.00 in WeatherDisplay:10.37 W/m2 FEW
19:10 77.6 °F 65.8 °F 30.00 in ENE 8.0 mph 8.0 mph 67% 0.00 in WeatherDisplay:10.37 W/m2 FEW
19:15 77.3 °F 65.5 °F 30.00 in East 9.0 mph 9.0 mph 67% 0.00 in WeatherDisplay:10.37 W/m2 FEW
19:20 76.9 °F 65.6 °F 30.00 in East 9.0 mph 9.0 mph 68% 0.00 in WeatherDisplay:10.37 W/m2 FEW
19:25 76.6 °F 65.7 °F 30.00 in East 9.0 mph 9.0 mph 69% 0.00 in WeatherDisplay:10.37 W/m2 FEW
19:30 76.3 °F 65.4 °F 30.00 in East 9.0 mph 9.0 mph 69% 0.00 in WeatherDisplay:10.37 W/m2 FEW
19:40 75.9 °F 65.4 °F 30.01 in East 9.0 mph 9.0 mph 70% 0.00 in WeatherDisplay:10.37 W/m2 FEW
19:50 75.3 °F 65.2 °F 30.01 in East 9.0 mph 9.0 mph 71% 0.00 in WeatherDisplay:10.37 W/m2 FEW
19:55 75.0 °F 65.0 °F 30.01 in East 9.0 mph 9.0 mph 71% 0.00 in WeatherDisplay:10.37 W/m2 FEW
20:00 74.7 °F 65.1 °F 30.01 in East 9.0 mph 9.0 mph 72% 0.00 in WeatherDisplay:10.37 W/m2 FEW
20:10 74.2 °F 65.4 °F 30.02 in East 9.0 mph 9.0 mph 74% 0.00 in WeatherDisplay:10.37 W/m2 FEW
20:15 73.9 °F 65.4 °F 30.02 in ENE 3.0 mph 9.0 mph 75% 0.00 in WeatherDisplay:10.37 W/m2 FEW
20:20 73.6 °F 65.2 °F 30.02 in North 3.0 mph 3.0 mph 75% 0.00 in WeatherDisplay:10.37 W/m2 FEW
20:25 73.5 °F 65.1 °F 30.02 in North 3.0 mph 3.0 mph 75% 0.00 in WeatherDisplay:10.37 W/m2 FEW
20:30 73.4 °F 65.4 °F 30.02 in North 3.0 mph 3.0 mph 76% 0.00 in WeatherDisplay:10.37 W/m2 FEW
20:35 73.3 °F 65.6 °F 30.02 in North 3.0 mph 3.0 mph 77% 0.00 in WeatherDisplay:10.37 W/m2 FEW
20:40 73.1 °F 65.4 °F 30.02 in North 3.0 mph 3.0 mph 77% 0.00 in WeatherDisplay:10.37 W/m2 FEW
20:45 72.9 °F 65.3 °F 30.02 in North 3.0 mph 3.0 mph 77% 0.00 in WeatherDisplay:10.37 W/m2 FEW
20:50 72.7 °F 65.4 °F 30.02 in North 3.0 mph 3.0 mph 78% 0.00 in WeatherDisplay:10.37 W/m2 FEW
20:55 72.6 °F 65.3 °F 30.02 in North 3.0 mph 3.0 mph 78% 0.00 in WeatherDisplay:10.37 W/m2 FEW
21:00 72.3 °F 65.4 °F 30.02 in North 3.0 mph 3.0 mph 79% 0.00 in WeatherDisplay:10.37 W/m2 FEW
21:10 72.0 °F 65.4 °F 30.02 in North 3.0 mph 3.0 mph 80% 0.00 in WeatherDisplay:10.37 W/m2 FEW
21:20 71.5 °F 65.4 °F 30.02 in NNE 3.0 mph 3.0 mph 81% 0.00 in WeatherDisplay:10.37 W/m2 FEW
21:25 71.3 °F 65.2 °F 30.02 in NNE 3.0 mph 3.0 mph 81% 0.00 in WeatherDisplay:10.37 W/m2 FEW
21:30 71.1 °F 65.0 °F 30.03 in NNE 3.0 mph 3.0 mph 81% 0.00 in WeatherDisplay:10.37 W/m2 FEW
21:35 70.9 °F 64.8 °F 30.03 in NNE 3.0 mph 3.0 mph 81% 0.00 in WeatherDisplay:10.37 W/m2 FEW
21:40 70.9 °F 65.1 °F 30.03 in NNE 3.0 mph 3.0 mph 82% 0.00 in WeatherDisplay:10.37 W/m2 FEW
21:45 70.7 °F 65.0 °F 30.03 in NNE 3.0 mph 3.0 mph 82% 0.00 in WeatherDisplay:10.37 W/m2 FEW
21:50 70.6 °F 64.9 °F 30.03 in NNE 3.0 mph 3.0 mph 82% 0.00 in WeatherDisplay:10.37 W/m2 FEW
21:55 70.6 °F 64.8 °F 30.03 in NNE 3.0 mph 3.0 mph 82% 0.00 in WeatherDisplay:10.37 W/m2 FEW
22:00 70.5 °F 65.1 °F 30.02 in NNE 3.0 mph 3.0 mph 83% 0.00 in WeatherDisplay:10.37 W/m2 FEW
22:10 70.2 °F 65.1 °F 30.03 in NNE 3.0 mph 3.0 mph 84% 0.00 in WeatherDisplay:10.37 W/m2 FEW
22:15 70.1 °F 65.0 °F 30.03 in NE 5.0 mph 5.0 mph 84% 0.00 in WeatherDisplay:10.37 W/m2 FEW
22:20 70.0 °F 64.9 °F 30.03 in NE 5.0 mph 5.0 mph 84% 0.00 in WeatherDisplay:10.37 W/m2 FEW
22:25 69.9 °F 64.8 °F 30.02 in NE 5.0 mph 5.0 mph 84% 0.00 in WeatherDisplay:10.37 W/m2 FEW
22:30 69.8 °F 64.7 °F 30.03 in NE 5.0 mph 5.0 mph 84% 0.00 in WeatherDisplay:10.37 W/m2 FEW
22:40 69.7 °F 65.0 °F 30.03 in NE 5.0 mph 5.0 mph 85% 0.00 in WeatherDisplay:10.37 W/m2 FEW
22:45 69.7 °F 65.0 °F 30.03 in NE 5.0 mph 5.0 mph 85% 0.00 in WeatherDisplay:10.37 W/m2 FEW
22:50 69.6 °F 64.9 °F 30.03 in NE 5.0 mph 5.0 mph 85% 0.00 in WeatherDisplay:10.37 W/m2 FEW
22:55 69.5 °F 64.8 °F 30.03 in NE 5.0 mph 5.0 mph 85% 0.00 in WeatherDisplay:10.37 W/m2 FEW
23:00 69.5 °F 64.8 °F 30.03 in NE 5.0 mph 5.0 mph 85% 0.00 in WeatherDisplay:10.37 W/m2 FEW
23:05 69.4 °F 64.7 °F 30.03 in NE 5.0 mph 5.0 mph 85% 0.00 in WeatherDisplay:10.37 W/m2 FEW
23:10 69.3 °F 64.6 °F 30.03 in NE 5.0 mph 5.0 mph 85% 0.00 in WeatherDisplay:10.37 W/m2 FEW
23:20 69.2 °F 64.5 °F 30.03 in NE 5.0 mph 5.0 mph 85% 0.00 in WeatherDisplay:10.37 W/m2 FEW
23:25 69.2 °F 64.5 °F 30.03 in NE 5.0 mph 5.0 mph 85% 0.00 in WeatherDisplay:10.37 W/m2 FEW
23:40 69.0 °F 64.7 °F 30.03 in NE 5.0 mph 5.0 mph 86% 0.00 in WeatherDisplay:10.37 W/m2 FEW
23:45 69.0 °F 64.6 °F 30.03 in NE 5.0 mph 5.0 mph 86% 0.00 in WeatherDisplay:10.37 W/m2 FEW
23:50 68.8 °F 64.4 °F 30.03 in NE 5.0 mph 5.0 mph 86% 0.00 in WeatherDisplay:10.37 W/m2 FEW
23:55 68.7 °F 64.3 °F 30.03 in NE 5.0 mph 5.0 mph 86% 0.00 in WeatherDisplay:10.37 W/m2 FEW
Piedmont Bend
Compliments of Weather Underground - 4 mb